Time;durP1;ratioP1;P1;durP2;ratioP2;P2;SDS_P1;SDS_P2;PMS_P1;PMS_P2;Temp;Humidity;BMP_temperature;BMP_pressure;BME280_temperature;BME280_humidity;BME280_pressure;Samples;Min_cycle;Max_cycle;Signal;HPM_P1;HPM_P2
2022/06/22 00:00:44;;;;;;;4.10;2.42;;;;;;;16.40;66.12;100538.84;5037220;28;20378;-53
2022/06/22 00:03:13;;;;;;;7.22;3.38;;;;;;;16.37;66.41;100546.81;5037493;28;20053;-52
2022/06/22 00:05:47;;;;;;;7.38;3.38;;;;;;;16.36;66.38;100541.63;5037856;28;20050;-52
2022/06/22 00:08:21;;;;;;;6.07;2.88;;;;;;;16.34;66.58;100539.06;5037561;28;20123;-52
2022/06/22 00:10:59;;;;;;;7.05;2.95;;;;;;;16.31;66.83;100544.41;5037791;28;20064;-52
2022/06/22 00:13:33;;;;;;;6.80;3.47;;;;;;;16.28;67.05;100539.28;5037331;28;20068;-52
2022/06/22 00:16:04;;;;;;;7.30;3.47;;;;;;;16.27;67.11;100542.81;5037352;28;20083;-53
2022/06/22 00:18:38;;;;;;;7.63;3.53;;;;;;;16.25;66.81;100544.63;5037638;28;20096;-51
2022/06/22 00:21:18;;;;;;;9.50;3.58;;;;;;;16.25;67.06;100542.00;5037937;28;20045;-52
2022/06/22 00:23:55;;;;;;;12.52;3.75;;;;;;;16.23;67.30;100535.13;5037717;28;20046;-53
2022/06/22 00:26:36;;;;;;;6.32;3.03;;;;;;;16.22;67.33;100534.28;5037287;28;20057;-53
2022/06/22 00:29:22;;;;;;;6.43;3.22;;;;;;;16.22;67.07;100529.03;5036823;28;20132;-52
2022/06/22 00:32:14;;;;;;;7.40;3.33;;;;;;;16.19;67.07;100529.16;5037227;28;20061;-52
2022/06/22 00:34:44;;;;;;;8.52;3.72;;;;;;;16.17;67.54;100535.34;5036384;28;20512;-55
2022/06/22 00:37:17;;;;;;;7.53;2.65;;;;;;;16.15;67.17;100524.94;5036014;28;20053;-52
2022/06/22 00:39:48;;;;;;;8.02;3.22;;;;;;;16.16;67.62;100529.25;5035501;28;20049;-54
2022/06/22 00:42:53;;;;;;;6.63;3.15;;;;;;;16.17;67.42;100528.34;5035956;28;20123;-52
2022/06/22 00:45:27;;;;;;;7.18;3.00;;;;;;;16.15;67.74;100527.56;5036310;28;20045;-53
2022/06/22 00:47:59;;;;;;;6.80;2.72;;;;;;;16.16;67.44;100534.50;5035925;28;20057;-55
2022/06/22 00:50:30;;;;;;;7.18;2.80;;;;;;;16.15;67.48;100532.78;5036433;28;20629;-52
2022/06/22 00:53:04;;;;;;;4.28;3.00;;;;;;;16.15;67.24;100540.63;5035760;28;20065;-53
2022/06/22 00:55:35;;;;;;;5.72;2.92;;;;;;;16.17;67.68;100543.19;5036775;28;20053;-51
2022/06/22 00:58:35;;;;;;;5.32;3.10;;;;;;;16.18;67.51;100540.53;5037005;28;20052;-53
2022/06/22 01:01:07;;;;;;;7.40;2.75;;;;;;;16.15;67.73;100531.94;5036888;28;20107;-52
2022/06/22 01:03:43;;;;;;;5.43;2.70;;;;;;;16.14;67.61;100536.31;5016326;28;20046;-54
2022/06/22 01:06:21;;;;;;;5.45;2.58;;;;;;;16.13;67.51;100531.97;5016450;28;20455;-52
2022/06/22 01:09:03;;;;;;;7.75;3.78;;;;;;;16.09;67.82;100533.81;5034940;28;20080;-53
2022/06/22 01:14:45;;;;;;;10.73;3.30;;;;;;;16.04;67.88;100529.66;5036235;28;20045;-51
2022/06/22 01:17:33;;;;;;;5.07;3.25;;;;;;;16.05;67.58;100528.75;5036938;28;20087;-52
2022/06/22 01:20:07;;;;;;;6.90;2.92;;;;;;;16.04;67.75;100529.66;5036254;28;20072;-55
2022/06/22 01:23:33;;;;;;;6.50;3.17;;;;;;;16.05;67.81;100534.84;5034882;28;20057;-55
2022/06/22 01:26:17;;;;;;;6.65;2.88;;;;;;;16.04;67.72;100534.88;5035113;28;20053;-50
2022/06/22 01:29:02;;;;;;;4.53;2.80;;;;;;;16.03;67.88;100534.03;5034776;28;20195;-53
2022/06/22 01:31:29;;;;;;;6.45;2.85;;;;;;;16.05;67.69;100536.59;5035258;28;20053;-52
2022/06/22 01:36:40;;;;;;;5.90;3.00;;;;;;;16.05;67.76;100536.59;5035232;28;20055;-53
2022/06/22 01:39:15;;;;;;;10.40;3.30;;;;;;;16.00;67.83;100534.13;5032975;28;20053;-52
2022/06/22 01:41:48;;;;;;;7.20;3.58;;;;;;;16.01;68.16;100535.00;5035325;28;20064;-55
2022/06/22 01:44:36;;;;;;;7.15;3.08;;;;;;;16.02;67.70;100528.84;5035275;28;20435;-55
2022/06/22 01:47:21;;;;;;;6.68;2.80;;;;;;;16.02;67.63;100539.31;5023071;28;20088;-54
2022/06/22 01:49:59;;;;;;;7.93;3.83;;;;;;;16.00;68.09;100535.91;5035070;28;20042;-54
2022/06/22 01:52:46;;;;;;;5.45;3.05;;;;;;;16.01;68.07;100537.59;5034610;28;20056;-53
2022/06/22 01:55:24;;;;;;;7.50;3.22;;;;;;;16.01;67.69;100545.44;5035065;28;20068;-51
2022/06/22 01:58:02;;;;;;;8.00;3.17;;;;;;;16.01;68.03;100540.22;5034894;28;20049;-52
2022/06/22 02:00:33;;;;;;;7.05;3.30;;;;;;;15.99;67.77;100547.25;5035054;28;20053;-51
2022/06/22 02:03:13;;;;;;;7.70;3.50;;;;;;;15.98;67.92;100542.94;5035483;28;20049;-51
2022/06/22 02:05:47;;;;;;;7.68;3.03;;;;;;;15.95;68.19;100540.44;5035694;28;20045;-51
2022/06/22 02:08:21;;;;;;;8.23;3.15;;;;;;;15.90;67.79;100542.34;5035647;28;20077;-51
2022/06/22 02:10:52;;;;;;;9.43;3.40;;;;;;;15.86;68.30;100546.81;5035665;28;20053;-52
2022/06/22 02:13:32;;;;;;;9.63;3.45;;;;;;;15.86;68.23;100545.97;5035678;28;20239;-52
2022/06/22 02:16:13;;;;;;;8.68;3.50;;;;;;;15.86;68.09;100540.72;5035613;28;20113;-54
2022/06/22 02:18:47;;;;;;;6.88;2.95;;;;;;;15.87;68.06;100542.44;5035591;28;20056;-51
2022/06/22 02:21:34;;;;;;;6.47;3.13;;;;;;;15.88;68.43;100544.16;5035739;28;20064;-53
2022/06/22 02:24:09;;;;;;;8.52;3.60;;;;;;;15.86;68.45;100556.41;5039349;28;20393;-51
2022/06/22 02:26:44;;;;;;;8.45;3.63;;;;;;;15.85;68.10;100559.94;5039702;28;20478;-54
2022/06/22 02:29:20;;;;;;;3.38;2.50;;;;;;;15.83;68.18;100556.53;5039550;28;20042;-51
2022/06/22 02:31:54;;;;;;;6.32;2.42;;;;;;;15.83;68.30;100556.53;5037737;28;20064;-52
2022/06/22 02:34:24;;;;;;;6.90;3.20;;;;;;;15.86;68.43;100545.97;5039250;28;20167;-53
2022/06/22 02:36:54;;;;;;;4.97;2.63;;;;;;;15.86;68.28;100562.50;5039668;28;20076;-54
2022/06/22 02:39:24;;;;;;;9.95;3.10;;;;;;;15.89;68.34;100561.53;5038968;28;20077;-53
2022/06/22 02:44:49;;;;;;;7.20;3.08;;;;;;;15.89;68.32;100572.84;5039144;28;20087;-52
2022/06/22 02:47:25;;;;;;;6.13;3.40;;;;;;;15.90;68.57;100578.94;5038746;28;20061;-54
2022/06/22 02:50:04;;;;;;;8.07;3.03;;;;;;;15.93;68.99;100579.69;5039032;28;20478;-52
2022/06/22 02:52:45;;;;;;;5.65;2.92;;;;;;;15.96;68.73;100576.13;5039396;28;20206;-51
2022/06/22 02:55:18;;;;;;;7.88;2.92;;;;;;;15.97;68.85;100581.28;5039240;28;20132;-52
2022/06/22 02:57:48;;;;;;;6.38;3.40;;;;;;;15.99;68.69;100587.31;5039235;28;20458;-54
2022/06/22 03:00:18;;;;;;;5.28;3.20;;;;;;;16.04;68.79;100585.41;5038531;28;20052;-54
2022/06/22 03:02:50;;;;;;;8.73;3.45;;;;;;;16.09;68.61;100580.03;5038739;28;20077;-51
2022/06/22 03:05:18;;;;;;;6.90;2.83;;;;;;;16.14;68.43;100572.91;5039011;28;20063;-52
2022/06/22 03:07:50;;;;;;;8.43;3.10;;;;;;;16.18;68.35;100577.13;5038685;28;20057;-54
2022/06/22 03:10:33;;;;;;;5.18;3.05;;;;;;;16.22;68.47;100581.34;5038969;28;20045;-55
2022/06/22 03:13:11;;;;;;;6.55;2.90;;;;;;;16.28;68.45;100591.59;5038467;28;20057;-54
2022/06/22 03:15:40;;;;;;;5.35;3.00;;;;;;;16.34;68.20;100586.16;5039028;28;20049;-52
2022/06/22 03:18:16;;;;;;;7.15;3.08;;;;;;;16.44;67.88;100584.06;5038889;28;20057;-53
2022/06/22 03:20:49;;;;;;;4.85;2.88;;;;;;;16.51;67.91;100582.09;5039115;28;20111;-51
2022/06/22 03:23:25;;;;;;;5.20;2.92;;;;;;;16.56;67.78;100588.03;5038700;28;20064;-54
2022/06/22 03:26:09;;;;;;;9.63;3.20;;;;;;;16.65;67.73;100580.75;5038597;28;20065;-55
2022/06/22 03:28:40;;;;;;;5.53;3.08;;;;;;;16.74;67.33;100586.56;5038364;28;20493;-54
2022/06/22 03:31:15;;;;;;;3.90;2.95;;;;;;;16.85;67.41;100582.66;5039043;28;20064;-51
2022/06/22 03:34:04;;;;;;;3.17;2.22;;;;;;;17.03;66.90;100581.09;5038061;28;20088;-55
2022/06/22 03:36:40;;;;;;;5.70;3.08;;;;;;;17.17;66.45;100578.84;5038607;28;20049;-54
2022/06/22 03:39:14;;;;;;;6.93;3.03;;;;;;;17.31;66.27;100580.94;5038738;28;20057;-51
2022/06/22 03:41:53;;;;;;;4.70;3.05;;;;;;;17.42;65.76;100578.75;5037804;28;20085;-53
2022/06/22 03:44:30;;;;;;;9.52;3.22;;;;;;;17.53;65.48;100580.94;5038454;28;20053;-54
2022/06/22 03:47:07;;;;;;;7.28;3.13;;;;;;;17.62;65.29;100576.19;5026059;28;20049;-54
2022/06/22 03:49:58;;;;;;;8.77;2.88;;;;;;;17.76;64.99;100573.06;5038487;28;20049;-52
2022/06/22 03:52:31;;;;;;;5.10;2.42;;;;;;;17.90;64.75;100575.13;5037914;28;20064;-52
2022/06/22 03:55:08;;;;;;;7.88;2.88;;;;;;;18.09;64.38;100580.47;5037437;28;20042;-51
2022/06/22 03:57:43;;;;;;;7.32;3.20;;;;;;;18.26;63.79;100578.84;5037084;28;20045;-51
2022/06/22 04:00:17;;;;;;;5.43;2.72;;;;;;;18.41;63.39;100579.13;5037731;28;20057;-51
2022/06/22 04:02:53;;;;;;;6.22;2.58;;;;;;;18.57;63.20;100577.53;5037479;28;20049;-51
2022/06/22 04:05:42;;;;;;;7.10;2.60;;;;;;;18.76;62.57;100583.72;5037194;28;20136;-52
2022/06/22 04:08:19;;;;;;;4.80;2.53;;;;;;;18.96;62.10;100584.59;5036926;28;20421;-51
2022/06/22 04:10:57;;;;;;;3.55;1.88;;;;;;;19.12;61.59;100585.59;5037192;28;20050;-51
2022/06/22 04:13:31;;;;;;;5.57;2.70;;;;;;;19.31;60.96;100596.13;5036966;28;20060;-52
2022/06/22 04:16:03;;;;;;;6.70;2.60;;;;;;;19.50;60.63;100583.81;5037304;28;20049;-51
2022/06/22 04:18:36;;;;;;;7.47;2.60;;;;;;;19.69;59.87;100581.19;5037653;28;20064;-51
2022/06/22 04:21:13;;;;;;;9.65;2.83;;;;;;;19.89;59.39;100594.25;5037757;28;20049;-51
2022/06/22 04:23:48;;;;;;;9.75;2.80;;;;;;;20.09;59.10;100594.09;5037899;28;20120;-51
2022/06/22 04:26:24;;;;;;;5.13;2.47;;;;;;;20.35;58.33;100591.94;5031994;28;20511;-52
2022/06/22 04:28:58;;;;;;;4.97;2.72;;;;;;;20.57;57.65;100592.56;5017587;28;20078;-51
2022/06/22 04:31:31;;;;;;;5.85;2.55;;;;;;;20.75;56.89;100594.25;5016849;28;20462;-52
2022/06/22 04:34:03;;;;;;;6.78;2.40;;;;;;;20.96;56.31;100594.06;5017805;28;20053;-51
2022/06/22 04:36:45;;;;;;;3.97;2.50;;;;;;;21.16;55.70;100596.47;5017710;28;20188;-51
2022/06/22 04:39:17;;;;;;;5.50;2.47;;;;;;;21.39;55.51;100597.91;5017922;28;20047;-51
2022/06/22 04:41:51;;;;;;;5.07;2.35;;;;;;;21.61;54.69;100605.44;5034959;28;20533;-51
2022/06/22 04:44:24;;;;;;;7.75;2.65;;;;;;;21.81;54.11;100599.03;5037683;28;20737;-54
2022/06/22 04:46:56;;;;;;;6.57;2.35;;;;;;;22.00;53.77;100605.84;5023717;28;20061;-53
2022/06/22 04:49:34;;;;;;;5.90;2.55;;;;;;;22.19;53.03;100604.78;5035768;28;20053;-51
2022/06/22 04:52:22;;;;;;;4.47;2.10;;;;;;;22.35;52.82;100600.31;5036440;28;20132;-51
2022/06/22 04:54:51;;;;;;;5.72;2.38;;;;;;;;;;5036588;28;20055;-53
2022/06/22 04:57:25;;;;;;;6.32;2.67;;;;;;;22.64;52.07;100607.34;5037342;28;20072;-51
2022/06/22 05:00:01;;;;;;;7.43;2.45;;;;;;;22.83;52.00;100616.84;5036296;28;20076;-53
2022/06/22 05:02:31;;;;;;;4.30;2.35;;;;;;;22.97;51.62;100615.06;5036268;28;20049;-52
2022/06/22 05:05:08;;;;;;;8.98;2.28;;;;;;;23.16;51.20;100617.41;5036327;28;20580;-52
2022/06/22 05:07:48;;;;;;;3.53;2.30;;;;;;;23.36;50.82;100620.59;5035476;28;20461;-52
2022/06/22 05:10:28;;;;;;;4.90;2.10;;;;;;;23.59;50.30;100612.09;5017830;28;20455;-52
2022/06/22 05:13:01;;;;;;;4.60;2.67;;;;;;;23.84;49.89;100614.84;5017688;28;20053;-52
2022/06/22 05:15:38;;;;;;;5.57;2.55;;;;;;;24.08;49.34;100608.91;5028867;28;20057;-51
2022/06/22 05:18:15;;;;;;;7.63;1.90;;;;;;;24.31;48.78;100602.09;5036134;28;20450;-51
2022/06/22 05:20:52;;;;;;;12.63;2.55;;;;;;;24.50;48.33;100611.34;5034619;28;20050;-51
2022/06/22 05:23:24;;;;;;;5.43;2.05;;;;;;;24.68;47.78;100603.09;5035218;28;20132;-55
2022/06/22 05:25:55;;;;;;;6.03;1.95;;;;;;;24.89;47.15;100606.88;5034048;28;20093;-55
2022/06/22 05:28:32;;;;;;;5.30;1.90;;;;;;;25.10;46.86;100609.88;5033055;28;20049;-52
2022/06/22 05:31:06;;;;;;;4.45;1.90;;;;;;;25.26;46.32;100609.63;5032959;28;20045;-51
2022/06/22 05:33:44;;;;;;;3.97;1.90;;;;;;;25.44;45.84;100614.47;5032890;28;20049;-51
2022/06/22 05:36:16;;;;;;;5.32;2.00;;;;;;;25.62;44.70;100612.31;5033038;28;20057;-52
2022/06/22 05:38:59;;;;;;;3.85;1.75;;;;;;;25.81;44.21;100610.97;5033468;28;20049;-52
2022/06/22 05:41:31;;;;;;;4.45;1.52;;;;;;;25.96;43.91;100615.16;5032928;28;20055;-55
2022/06/22 05:44:06;;;;;;;3.85;1.80;;;;;;;26.10;43.88;100618.50;5034221;28;20054;-51
2022/06/22 05:46:42;;;;;;;3.33;1.60;;;;;;;26.21;43.08;100615.03;5033516;28;20486;-51
2022/06/22 05:49:17;;;;;;;4.10;1.52;;;;;;;26.34;42.80;100609.66;5034204;28;20057;-51
2022/06/22 05:52:03;;;;;;;4.07;1.90;;;;;;;26.49;42.73;100608.47;5034006;28;20049;-53
2022/06/22 05:54:55;;;;;;;5.80;1.73;;;;;;;26.66;42.44;100605.38;5034694;28;20099;-55
2022/06/22 05:57:34;;;;;;;5.20;1.45;;;;;;;26.85;41.73;100610.13;5033764;28;20132;-55
2022/06/22 06:00:13;;;;;;;6.18;1.83;;;;;;;27.01;41.14;100610.63;5034007;28;20064;-55
2022/06/22 06:02:51;;;;;;;7.07;2.08;;;;;;;27.15;41.06;100609.56;5033686;28;20115;-52
2022/06/22 06:05:26;;;;;;;6.40;1.60;;;;;;;27.33;40.66;100615.22;5034045;28;20056;-55
2022/06/22 06:08:03;;;;;;;;;;;;;;;27.45;39.64;100622.22;5034081;28;20150;-52
2022/06/22 06:10:42;;;;;;;5.28;1.67;;;;;;;27.62;40.11;100619.09;5033568;28;19932;-52
2022/06/22 06:13:20;;;;;;;4.35;1.75;;;;;;;27.72;39.56;100621.84;5033503;28;20064;-55
2022/06/22 06:15:54;;;;;;;5.30;1.88;;;;;;;27.73;39.62;100622.69;5031937;28;20101;-55
2022/06/22 06:18:29;;;;;;;7.38;1.50;;;;;;;27.78;39.63;100615.16;5033546;28;20155;-52
2022/06/22 06:21:04;;;;;;;4.78;1.50;;;;;;;27.88;39.21;100616.09;5033989;28;20050;-55
2022/06/22 06:23:41;;;;;;;7.95;2.20;;;;;;;27.95;38.64;100619.94;5033481;28;20049;-56
2022/06/22 06:29:15;;;;;;;4.40;1.80;;;;;;;27.56;39.15;100639.97;5033259;28;20187;-53
2022/06/22 06:31:52;;;;;;;6.53;1.70;;;;;;;27.32;39.46;100641.00;5033215;28;20462;-55
2022/06/22 06:34:32;;;;;;;3.95;1.70;;;;;;;27.26;39.47;100640.63;5033746;28;20496;-53
2022/06/22 06:37:10;;;;;;;6.05;1.90;;;;;;;27.01;39.74;100637.22;5032947;28;20049;-53
2022/06/22 06:39:45;;;;;;;4.80;1.73;;;;;;;26.88;40.13;100636.47;5033266;28;20061;-52
2022/06/22 06:42:36;;;;;;;6.20;1.77;;;;;;;26.69;40.08;100638.88;5033658;28;20061;-54
2022/06/22 06:45:16;;;;;;;10.85;2.13;;;;;;;26.57;40.81;100635.34;5033459;28;20119;-52
2022/06/22 06:47:51;;;;;;;4.15;2.20;;;;;;;26.51;41.01;100629.63;5032756;28;20072;-54
2022/06/22 06:50:30;;;;;;;7.28;3.38;;;;;;;26.48;40.64;100633.38;5033755;28;20045;-54
2022/06/22 06:53:07;;;;;;;4.78;1.75;;;;;;;26.50;40.51;100643.88;5033940;28;20533;-55
2022/06/22 06:55:43;;;;;;;4.25;1.10;;;;;;;26.63;40.43;100637.53;5033068;28;20103;-55
2022/06/22 06:58:24;;;;;;;7.05;1.60;;;;;;;26.85;39.93;100641.19;5033709;28;20053;-55
2022/06/22 07:00:55;;;;;;;4.10;1.20;;;;;;;27.04;39.70;100636.16;5033372;28;20046;-53
2022/06/22 07:03:29;;;;;;;3.80;1.30;;;;;;;27.32;39.14;100643.66;5033119;28;20115;-54
2022/06/22 07:05:59;;;;;;;3.78;1.13;;;;;;;27.59;38.65;100637.94;5033465;28;20073;-55
2022/06/22 07:08:38;;;;;;;7.28;1.60;;;;;;;27.91;37.32;100653.13;5032462;28;20063;-52
2022/06/22 07:11:16;;;;;;;5.55;1.73;;;;;;;28.11;37.36;100646.19;5036194;28;20049;-52
2022/06/22 07:13:49;;;;;;;7.50;2.00;;;;;;;28.38;37.18;100648.38;5035614;28;20548;-54
2022/06/22 07:16:25;;;;;;;13.38;2.10;;;;;;;28.49;37.09;100648.31;5035438;28;20050;-53
2022/06/22 07:18:57;;;;;;;5.28;1.27;;;;;;;28.69;36.54;100650.16;5035953;28;20394;-52
2022/06/22 07:21:32;;;;;;;5.05;1.85;;;;;;;28.74;36.32;100645.28;5036009;28;20406;-52
2022/06/22 07:24:04;;;;;;;5.50;1.38;;;;;;;28.89;36.08;100635.13;5036077;28;20115;-52
2022/06/22 07:26:48;;;;;;;4.05;1.40;;;;;;;29.01;35.56;100642.06;5036041;28;20049;-52
2022/06/22 07:29:36;;;;;;;14.30;2.35;;;;;;;29.10;35.11;100640.41;5035888;28;20064;-51
2022/06/22 07:32:15;;;;;;;4.20;1.40;;;;;;;29.22;35.15;100636.69;5035456;28;20052;-52
2022/06/22 07:34:56;;;;;;;4.53;1.80;;;;;;;29.31;35.11;100635.88;5035674;28;20053;-52
2022/06/22 07:37:32;;;;;;;4.78;1.42;;;;;;;29.44;34.91;100641.84;5035627;28;20060;-51
2022/06/22 07:40:07;;;;;;;5.20;1.33;;;;;;;29.52;34.66;100643.84;5035581;28;20081;-52
2022/06/22 07:42:38;;;;;;;3.17;1.52;;;;;;;29.57;34.50;100648.75;5035635;28;20057;-51
2022/06/22 07:45:15;;;;;;;3.47;1.73;;;;;;;29.39;34.44;100641.38;5035763;28;20056;-52
2022/06/22 07:47:55;;;;;;;5.70;2.10;;;;;;;29.41;34.21;100646.59;5035214;28;20088;-52
2022/06/22 07:50:28;;;;;;;12.98;2.47;;;;;;;29.20;34.58;100644.00;5034852;28;20054;-52
2022/06/22 07:53:07;;;;;;;25.10;3.30;;;;;;;29.03;34.89;100649.94;5035743;28;20060;-52
2022/06/22 07:55:45;;;;;;;5.22;1.50;;;;;;;28.81;35.21;100646.44;5034987;28;20057;-52
2022/06/22 07:58:31;;;;;;;5.45;1.65;;;;;;;28.57;34.76;100659.19;5035323;28;20045;-51
2022/06/22 08:01:05;;;;;;;7.78;2.03;;;;;;;28.31;35.46;100655.22;5035478;28;20056;-55
2022/06/22 08:03:36;;;;;;;;;;;;;;;28.08;35.34;100655.25;5035589;28;20072;-55
2022/06/22 08:06:08;;;;;;;6.30;1.80;;;;;;;27.95;36.00;100659.91;5035275;28;20350;-54
2022/06/22 08:08:46;;;;;;;45.58;4.57;;;;;;;27.91;36.41;100659.31;5035348;28;20053;-55
2022/06/22 08:11:22;;;;;;;7.80;2.20;;;;;;;28.05;36.32;100660.00;5034669;28;20061;-53
2022/06/22 08:13:56;;;;;;;6.25;1.50;;;;;;;28.30;36.06;100648.19;5034898;28;20057;-52
2022/06/22 08:16:35;;;;;;;24.35;2.60;;;;;;;28.61;35.31;100647.28;5034975;28;20056;-51
2022/06/22 08:19:13;;;;;;;14.63;2.47;;;;;;;28.84;35.53;100651.53;5035115;28;20111;-51
2022/06/22 08:21:49;;;;;;;5.07;1.63;;;;;;;29.16;35.08;100653.25;5034607;28;20045;-51
2022/06/22 08:24:21;;;;;;;4.80;1.67;;;;;;;29.22;34.82;100663.38;5033234;28;20538;-54
2022/06/22 08:26:52;;;;;;;3.88;1.92;;;;;;;29.37;34.89;100650.50;5035203;28;20378;-52
2022/06/22 08:29:23;;;;;;;3.72;1.50;;;;;;;29.45;34.64;100664.91;5034730;28;20063;-51
2022/06/22 08:32:01;;;;;;;3.47;1.75;;;;;;;29.38;34.59;100663.72;5034583;28;20041;-53
2022/06/22 08:34:37;;;;;;;5.40;2.03;;;;;;;29.26;35.02;100658.63;5034134;28;20104;-51
2022/06/22 08:37:13;;;;;;;8.30;2.90;;;;;;;29.14;35.03;100665.88;5031963;28;20059;-52
2022/06/22 08:39:47;;;;;;;4.60;1.70;;;;;;;29.16;35.12;100669.25;5033977;28;20126;-52
2022/06/22 08:42:36;;;;;;;4.32;1.70;;;;;;;29.26;34.08;100674.63;5034797;28;20045;-52
2022/06/22 08:45:19;;;;;;;4.85;1.50;;;;;;;29.46;33.99;100666.59;5034156;28;20061;-52
2022/06/22 08:48:28;;;;;;;8.65;1.83;;;;;;;29.62;33.47;100665.22;5033060;28;20049;-55
2022/06/22 08:51:32;;;;;;;15.15;1.90;;;;;;;29.80;34.07;100663.59;5020731;28;20160;-56
2022/06/22 08:54:22;;;;;;;4.75;2.13;;;;;;;30.11;33.07;100670.53;5034296;28;20084;-55
2022/06/22 08:57:03;;;;;;;24.77;3.35;;;;;;;30.29;33.34;100664.50;5033922;28;20045;-53
2022/06/22 09:00:13;;;;;;;7.47;1.60;;;;;;;30.16;32.85;100670.09;5021826;28;20049;-56
2022/06/22 09:03:08;;;;;;;7.70;1.85;;;;;;;29.87;33.10;100674.56;5028528;28;20046;-56
2022/06/22 09:05:57;;;;;;;6.82;1.90;;;;;;;29.41;33.29;100679.47;5025271;28;20049;-55
2022/06/22 09:08:52;;;;;;;3.97;1.50;;;;;;;29.04;34.03;100676.47;5033681;28;20049;-55
2022/06/22 09:11:31;;;;;;;3.17;1.60;;;;;;;28.84;34.39;100670.22;5016355;28;20132;-56
2022/06/22 09:14:32;;;;;;;2.83;1.45;;;;;;;28.82;34.42;100666.78;5033830;28;20319;-53
2022/06/22 09:17:33;;;;;;;5.20;1.33;;;;;;;28.95;34.41;100676.44;5031511;28;20120;-53
2022/06/22 09:20:24;;;;;;;3.72;1.38;;;;;;;28.95;34.01;100666.59;5029661;28;20352;-55
2022/06/22 09:23:16;;;;;;;3.15;1.73;;;;;;;28.95;34.47;100671.94;5033376;28;20057;-56
2022/06/22 09:25:48;;;;;;;4.18;1.23;;;;;;;29.12;34.13;100681.16;5032986;28;20058;-56
2022/06/22 09:28:28;;;;;;;3.25;1.35;;;;;;;29.30;33.53;100679.56;5032973;28;20466;-56
2022/06/22 09:31:18;;;;;;;7.15;1.50;;;;;;;29.34;33.96;100691.66;5033568;28;20081;-56
2022/06/22 09:34:03;;;;;;;7.43;2.17;;;;;;;29.28;33.56;100686.88;5031950;28;20132;-55
2022/06/22 09:37:03;;;;;;;5.85;1.48;;;;;;;29.17;33.44;100682.47;5032991;28;20536;-53
2022/06/22 09:40:10;;;;;;;4.00;1.73;;;;;;;29.11;33.40;100679.47;5011677;28;20069;-54
2022/06/22 09:43:22;;;;;;;4.68;1.45;;;;;;;29.19;33.14;100675.19;5020150;28;20045;-53
2022/06/22 09:46:32;;;;;;;2.53;1.23;;;;;;;29.27;32.03;100671.84;5032116;28;20038;-54
2022/06/22 09:49:35;;;;;;;3.35;1.40;;;;;;;29.37;32.78;100671.88;5026286;28;20077;-55
2022/06/22 09:52:35;;;;;;;8.93;1.73;;;;;;;29.32;32.94;100674.94;5032733;28;20434;-53
2022/06/22 09:59:00;;;;;;;6.43;1.42;;;;;;;29.27;32.75;100671.84;5003364;28;20063;-56
2022/06/22 10:01:41;;;;;;;5.30;1.10;;;;;;;29.33;33.60;100681.97;5031473;28;20053;-53
2022/06/22 10:04:38;;;;;;;17.27;2.78;;;;;;;29.47;33.76;100688.78;5033587;28;20045;-52
2022/06/22 10:07:38;;;;;;;5.60;1.50;;;;;;;29.39;32.69;100691.25;5031437;28;20064;-56
2022/06/22 10:10:21;;;;;;;4.75;1.27;;;;;;;29.24;32.90;100698.78;5032990;28;20680;-53
2022/06/22 10:13:43;;;;;;;27.55;2.42;;;;;;;29.09;32.80;100689.44;5032824;28;20046;-52
2022/06/22 10:16:45;;;;;;;3.83;1.80;;;;;;;28.99;32.75;100693.88;5033373;28;20050;-54
2022/06/22 10:19:33;;;;;;;3.03;1.30;;;;;;;28.96;33.22;100694.13;5032387;28;20053;-52
2022/06/22 10:22:41;;;;;;;6.97;1.40;;;;;;;28.93;32.59;100699.75;5032765;28;20439;-52
2022/06/22 10:26:00;;;;;;;19.30;2.40;;;;;;;28.70;33.29;100693.69;5031096;28;20160;-52
2022/06/22 10:29:00;;;;;;;45.40;3.45;;;;;;;28.50;33.35;100698.00;5027924;28;20111;-51
2022/06/22 10:31:54;;;;;;;10.38;1.98;;;;;;;28.28;33.73;100699.81;5031184;28;20060;-55
2022/06/22 10:34:45;;;;;;;3.70;1.48;;;;;;;28.13;33.85;100706.38;5028533;28;20068;-52
2022/06/22 10:37:33;;;;;;;98.93;7.53;;;;;;;28.00;34.19;100695.00;5032246;28;20064;-52
2022/06/22 10:47:13;;;;;;;3.65;1.35;;;;;;;27.82;33.72;100688.53;4956601;29;20085;-52
2022/06/22 10:50:04;;;;;;;3.78;1.35;;;;;;;27.83;34.05;100692.88;4956869;29;20047;-55
2022/06/22 10:53:01;;;;;;;4.80;1.40;;;;;;;27.89;34.02;100693.22;4961116;28;20528;-54
2022/06/22 10:55:46;;;;;;;2.03;0.90;;;;;;;27.98;33.75;100691.63;5036394;28;20103;-52
2022/06/22 10:58:20;;;;;;;;;;;;;;;27.97;33.38;100690.78;5035791;28;20053;-52
2022/06/22 11:01:06;;;;;;;3.78;1.35;;;;;;;27.95;34.31;100682.06;5034144;28;20012;-52
2022/06/22 11:04:34;;;;;;;2.42;1.17;;;;;;;27.95;34.46;100686.53;5035865;28;20049;-56
2022/06/22 11:07:20;;;;;;;2.85;1.20;;;;;;;27.92;33.87;100686.78;4971195;28;20054;-56
2022/06/22 11:10:08;;;;;;;8.90;1.70;;;;;;;27.96;34.16;100691.75;4975367;28;20121;-55
2022/06/22 11:12:58;;;;;;;6.30;1.80;;;;;;;28.03;34.05;100684.09;4971232;28;20043;-55
2022/06/22 11:16:09;;;;;;;7.45;2.38;;;;;;;27.84;35.69;100689.25;4971369;28;20054;-56
2022/06/22 11:19:19;;;;;;;7.15;2.95;;;;;;;27.44;36.47;100686.22;4968944;28;20057;-56
2022/06/22 11:22:30;;;;;;;7.03;2.20;;;;;;;27.02;37.19;100681.50;4974717;28;20133;-55
2022/06/22 11:32:56;;;;;;;6.13;2.53;;;;;;;26.69;38.59;100700.03;4974433;28;20061;-56
2022/06/22 11:35:54;;;;;;;5.57;2.55;;;;;;;26.63;38.29;100700.50;4974381;28;20077;-55
2022/06/22 11:39:34;;;;;;;5.72;2.92;;;;;;;26.48;39.22;100697.16;4911803;29;20063;-55
2022/06/22 11:42:38;;;;;;;4.47;2.17;;;;;;;26.32;39.96;100692.13;4963333;28;20052;-55
2022/06/22 11:48:43;;;;;;;5.60;2.45;;;;;;;25.75;40.06;100698.09;5031038;28;20115;-56
2022/06/22 11:51:26;;;;;;;6.20;2.42;;;;;;;25.57;40.76;100695.88;5024092;28;20128;-54
2022/06/22 11:54:12;;;;;;;74.28;6.65;;;;;;;25.36;40.56;100695.56;5037546;28;20042;-51
2022/06/22 11:57:04;;;;;;;5.85;2.28;;;;;;;25.17;40.78;100696.03;5034065;28;20382;-51
2022/06/22 12:00:02;;;;;;;6.35;2.00;;;;;;;24.94;41.21;100694.91;5032822;28;20085;-51
2022/06/22 12:03:03;;;;;;;5.53;2.10;;;;;;;24.77;42.31;100687.28;5034420;28;20054;-51
2022/06/22 12:05:51;;;;;;;5.68;2.03;;;;;;;24.54;41.84;100683.53;5032964;28;20140;-52
2022/06/22 12:08:47;;;;;;;9.63;2.17;;;;;;;24.43;41.82;100691.31;5034433;28;20049;-50
2022/06/22 12:11:25;;;;;;;5.68;1.60;;;;;;;24.31;42.10;100695.63;5034626;28;20104;-51
2022/06/22 12:17:18;;;;;;;5.50;1.95;;;;;;;24.11;43.43;100693.44;5034138;28;20068;-55
2022/06/22 12:19:52;;;;;;;5.90;1.88;;;;;;;24.08;43.02;100688.34;5035569;28;20045;-52
2022/06/22 12:22:28;;;;;;;;;;;;;;;23.95;43.13;100698.03;5034401;28;20045;-53
2022/06/22 12:25:27;;;;;;;8.60;2.65;;;;;;;24.04;42.63;100697.44;5034124;28;19928;-52
2022/06/22 12:28:22;;;;;;;5.15;2.28;;;;;;;24.11;42.75;100696.06;5016854;28;20041;-53
2022/06/22 12:31:13;;;;;;;25.10;3.78;;;;;;;24.18;42.59;100694.72;5031618;28;20057;-56
2022/06/22 12:33:46;;;;;;;4.70;2.00;;;;;;;24.15;42.58;100698.41;5033903;28;20053;-55
2022/06/22 12:36:25;;;;;;;9.40;2.38;;;;;;;24.04;42.82;100697.44;5034464;28;20088;-54
2022/06/22 12:39:04;;;;;;;3.38;1.90;;;;;;;24.01;42.57;100697.63;5031259;28;20054;-51
2022/06/22 12:41:54;;;;;;;4.82;1.95;;;;;;;23.92;43.21;100689.31;5033633;28;20117;-57
2022/06/22 12:45:16;;;;;;;5.72;1.90;;;;;;;23.85;42.88;100687.16;5033659;28;20071;-54
2022/06/22 12:48:35;;;;;;;4.97;1.80;;;;;;;23.70;43.47;100683.69;5026375;28;20079;-52
2022/06/22 12:51:39;;;;;;;6.15;2.25;;;;;;;23.72;43.59;100683.59;4863377;29;20096;-52
2022/06/22 12:54:16;;;;;;;4.63;1.88;;;;;;;23.70;43.23;100677.56;4868503;29;20065;-54
2022/06/22 12:56:52;;;;;;;5.05;1.80;;;;;;;23.68;43.35;100680.28;4870395;29;20495;-57
2022/06/22 12:59:26;;;;;;;4.88;2.08;;;;;;;23.74;42.87;100685.19;4872875;29;20064;-57
2022/06/22 13:02:13;;;;;;;4.15;1.77;;;;;;;23.63;42.64;100677.09;4933991;29;20055;-56
2022/06/22 13:04:46;;;;;;;5.15;1.63;;;;;;;23.55;43.10;100679.38;4953060;29;20047;-56
2022/06/22 13:07:20;;;;;;;3.45;1.30;;;;;;;23.50;43.51;100681.44;4952720;28;20087;-56
2022/06/22 13:09:52;;;;;;;4.13;1.90;;;;;;;23.48;43.50;100676.25;4952399;29;20051;-56